Time,TemperatureF,DewpointF,PressureIn,WindDirection,WindDirectionDegrees,WindSpeedMPH,WindSpeedGustMPH,Humidity,HourlyPrecipIn,Conditions,Clouds,dailyrainin,SoftwareType,DateUTC
2013-03-04 00:00:00,25.7,18.9,30.14,WNW,290,1.0,1.0,75,0.00,,,0.00,Wunderground v.1.15,2013-03-04 05:00:00,
2013-03-04 00:05:00,25.7,18.6,30.14,WSW,253,1.0,3.0,74,0.00,,,0.00,Wunderground v.1.15,2013-03-04 05:05:00,
2013-03-04 00:10:00,25.7,18.6,30.14,WSW,251,1.0,1.0,74,0.00,,,0.00,Wunderground v.1.15,2013-03-04 05:10:00,
2013-03-04 00:15:00,25.6,18.5,30.14,NW,309,0.0,1.0,74,0.00,,,0.00,Wunderground v.1.15,2013-03-04 05:15:00,
2013-03-04 00:25:00,25.5,18.0,30.14,ESE,115,1.0,1.0,73,0.00,,,0.00,Wunderground v.1.15,2013-03-04 05:25:00,
2013-03-04 00:30:00,25.5,18.4,30.14,SSW,198,1.0,3.0,74,0.00,,,0.00,Wunderground v.1.15,2013-03-04 05:30:00,
2013-03-04 00:40:00,25.6,18.1,30.15,WSW,247,1.0,1.0,73,0.00,,,0.00,Wunderground v.1.15,2013-03-04 05:40:00,
2013-03-04 00:45:00,25.6,18.8,30.15,WSW,246,1.0,1.0,75,0.00,,,0.00,Wunderground v.1.15,2013-03-04 05:45:00,
2013-03-04 00:50:00,25.6,18.1,30.15,WNW,290,1.0,6.0,73,0.00,,,0.00,Wunderground v.1.15,2013-03-04 05:50:00,
2013-03-04 00:55:00,25.7,18.2,30.15,NW,321,2.0,6.0,73,0.00,,,0.00,Wunderground v.1.15,2013-03-04 05:55:00,
2013-03-04 01:05:00,25.7,17.9,30.15,NW,319,2.0,5.0,72,0.00,,,0.00,Wunderground v.1.15,2013-03-04 06:05:00,
2013-03-04 01:10:00,25.8,18.0,30.15,West,267,2.0,2.0,72,0.00,,,0.00,Wunderground v.1.15,2013-03-04 06:10:00,
2013-03-04 01:15:00,25.8,18.3,30.15,ESE,115,2.0,2.0,73,0.00,,,0.00,Wunderground v.1.15,2013-03-04 06:15:00,
2013-03-04 01:25:00,25.7,19.2,30.16,SW,231,2.0,4.0,76,0.00,,,0.00,Wunderground v.1.15,2013-03-04 06:25:00,
2013-03-04 01:30:00,25.6,18.8,30.16,NW,325,2.0,2.0,75,0.00,,,0.00,Wunderground v.1.15,2013-03-04 06:30:00,
2013-03-04 01:35:00,25.7,18.9,30.16,NW,304,2.0,2.0,75,0.00,,,0.00,Wunderground v.1.15,2013-03-04 06:35:00,
2013-03-04 01:40:00,25.7,18.9,30.16,WNW,300,2.0,2.0,75,0.00,,,0.00,Wunderground v.1.15,2013-03-04 06:40:00,
2013-03-04 01:45:00,25.6,19.1,30.16,NNW,338,1.0,2.0,76,0.00,,,0.00,Wunderground v.1.15,2013-03-04 06:45:00,
2013-03-04 01:55:00,25.6,19.1,30.16,West,281,2.0,2.0,76,0.00,,,0.00,Wunderground v.1.15,2013-03-04 06:55:00,
2013-03-04 02:00:00,25.6,19.4,30.16,NW,315,2.0,2.0,77,0.00,,,0.00,Wunderground v.1.15,2013-03-04 07:00:00,
2013-03-04 02:10:00,25.6,19.1,30.17,WNW,301,3.0,3.0,76,0.00,,,0.00,Wunderground v.1.15,2013-03-04 07:10:00,
2013-03-04 02:15:00,25.6,19.4,30.17,West,275,3.0,3.0,77,0.00,,,0.00,Wunderground v.1.15,2013-03-04 07:15:00,
2013-03-04 02:25:00,25.6,19.1,30.17,NNW,328,2.0,3.0,76,0.00,,,0.00,Wunderground v.1.15,2013-03-04 07:25:00,
2013-03-04 02:30:00,25.6,19.4,30.17,NNW,328,2.0,2.0,77,0.00,,,0.00,Wunderground v.1.15,2013-03-04 07:30:00,
2013-03-04 02:35:00,25.6,19.4,30.17,WNW,294,0.0,2.0,77,0.00,,,0.00,Wunderground v.1.15,2013-03-04 07:35:00,
2013-03-04 02:40:00,25.5,19.0,30.17,NW,318,1.0,1.0,76,0.00,,,0.00,Wunderground v.1.15,2013-03-04 07:40:00,
2013-03-04 02:45:00,25.5,18.7,30.17,West,264,3.0,3.0,75,0.00,,,0.00,Wunderground v.1.15,2013-03-04 07:45:00,
2013-03-04 02:55:00,25.5,18.7,30.17,WSW,252,3.0,3.0,75,0.00,,,0.00,Wunderground v.1.15,2013-03-04 07:55:00,
2013-03-04 03:00:00,25.4,18.6,30.17,West,267,2.0,2.0,75,0.00,,,0.00,Wunderground v.1.15,2013-03-04 08:00:00,
2013-03-04 03:10:00,25.4,18.6,30.17,WNW,293,2.0,2.0,75,0.00,,,0.00,Wunderground v.1.15,2013-03-04 08:10:00,
2013-03-04 03:15:00,25.4,18.6,30.17,NW,311,2.0,2.0,75,0.00,,,0.00,Wunderground v.1.15,2013-03-04 08:15:00,
2013-03-04 03:25:00,25.3,18.8,30.17,WNW,292,1.0,2.0,76,0.00,,,0.00,Wunderground v.1.15,2013-03-04 08:25:00,
2013-03-04 03:35:00,25.3,18.8,30.17,NW,309,1.0,1.0,76,0.00,,,0.00,Wunderground v.1.15,2013-03-04 08:35:00,
2013-03-04 03:40:00,25.2,18.7,30.17,NW,309,0.0,0.0,76,0.00,,,0.00,Wunderground v.1.15,2013-03-04 08:40:00,
2013-03-04 03:50:00,25.1,18.6,30.17,West,268,0.0,0.0,76,0.00,,,0.00,Wunderground v.1.15,2013-03-04 08:50:00,
2013-03-04 03:55:00,25.0,18.8,30.18,West,268,0.0,0.0,77,0.00,,,0.00,Wunderground v.1.15,2013-03-04 08:55:00,
2013-03-04 04:00:00,25.0,18.5,30.18,West,268,0.0,0.0,76,0.00,,,0.00,Wunderground v.1.15,2013-03-04 09:00:00,
2013-03-04 04:10:00,25.0,18.2,30.18,WNW,300,1.0,1.0,75,0.00,,,0.00,Wunderground v.1.15,2013-03-04 09:10:00,
2013-03-04 04:15:00,24.9,18.1,30.18,WNW,284,1.0,1.0,75,0.00,,,0.00,Wunderground v.1.15,2013-03-04 09:15:00,
2013-03-04 04:25:00,24.8,18.3,30.18,WNW,284,0.0,0.0,76,0.00,,,0.00,Wunderground v.1.15,2013-03-04 09:25:00,
2013-03-04 04:30:00,24.7,18.2,30.19,WNW,298,0.0,0.0,76,0.00,,,0.00,Wunderground v.1.15,2013-03-04 09:30:00,
2013-03-04 04:40:00,24.5,18.0,30.19,WNW,298,0.0,1.0,76,0.00,,,0.00,Wunderground v.1.15,2013-03-04 09:40:00,
2013-03-04 04:45:00,24.4,17.9,30.19,WNW,298,0.0,1.0,76,0.00,,,0.00,Wunderground v.1.15,2013-03-04 09:45:00,
2013-03-04 04:55:00,24.4,18.5,30.20,WNW,293,0.0,1.0,78,0.00,,,0.00,Wunderground v.1.15,2013-03-04 09:55:00,
2013-03-04 05:00:00,24.5,18.9,30.20,WNW,300,0.0,2.0,79,0.00,,,0.00,Wunderground v.1.15,2013-03-04 10:00:00,
2013-03-04 05:10:00,24.7,18.8,30.20,NW,309,2.0,2.0,78,0.00,,,0.00,Wunderground v.1.15,2013-03-04 10:10:00,
2013-03-04 05:15:00,24.8,18.9,30.20,NW,325,2.0,2.0,78,0.00,,,0.00,Wunderground v.1.15,2013-03-04 10:15:00,
2013-03-04 05:25:00,24.8,18.6,30.20,WNW,298,1.0,3.0,77,0.00,,,0.00,Wunderground v.1.15,2013-03-04 10:25:00,
2013-03-04 05:30:00,24.8,18.6,30.21,WNW,298,1.0,5.0,77,0.00,,,0.00,Wunderground v.1.15,2013-03-04 10:30:00,
2013-03-04 05:40:00,24.8,18.6,30.21,West,272,1.0,1.0,77,0.00,,,0.00,Wunderground v.1.15,2013-03-04 10:40:00,
2013-03-04 05:45:00,24.7,18.5,30.21,NW,321,1.0,1.0,77,0.00,,,0.00,Wunderground v.1.15,2013-03-04 10:45:00,
2013-03-04 05:50:00,24.7,18.5,30.21,SW,232,2.0,2.0,77,0.00,,,0.00,Wunderground v.1.15,2013-03-04 10:50:00,
2013-03-04 06:00:00,24.7,18.5,30.22,NW,306,1.0,1.0,77,0.00,,,0.00,Wunderground v.1.15,2013-03-04 11:00:00,
2013-03-04 06:10:00,24.6,18.4,30.22,WSW,238,0.0,0.0,77,0.00,,,0.00,Wunderground v.1.15,2013-03-04 11:10:00,
2013-03-04 06:15:00,24.6,18.4,30.22,WSW,238,0.0,0.0,77,0.00,,,0.00,Wunderground v.1.15,2013-03-04 11:15:00,
2013-03-04 06:25:00,24.5,18.3,30.22,SSW,192,0.0,0.0,77,0.00,,,0.00,Wunderground v.1.15,2013-03-04 11:25:00,
2013-03-04 06:30:00,24.5,18.0,30.23,NNW,335,0.0,0.0,76,0.00,,,0.00,Wunderground v.1.15,2013-03-04 11:30:00,
2013-03-04 06:40:00,24.5,18.0,30.23,WNW,301,1.0,1.0,76,0.00,,,0.00,Wunderground v.1.15,2013-03-04 11:40:00,
2013-03-04 06:45:00,24.6,17.8,30.23,West,265,1.0,1.0,75,0.00,,,0.00,Wunderground v.1.15,2013-03-04 11:45:00,
2013-03-04 06:55:00,24.5,18.0,30.23,SW,231,1.0,1.0,76,0.00,,,0.00,Wunderground v.1.15,2013-03-04 11:55:00,
2013-03-04 07:00:00,24.5,18.0,30.24,SW,231,0.0,0.0,76,0.00,,,0.00,Wunderground v.1.15,2013-03-04 12:00:00,
2013-03-04 07:10:00,24.6,18.1,30.24,WNW,300,1.0,1.0,76,0.00,,,0.00,Wunderground v.1.15,2013-03-04 12:10:00,
2013-03-04 07:20:00,24.6,18.1,30.25,WNW,285,1.0,1.0,76,0.00,,,0.00,Wunderground v.1.15,2013-03-04 12:20:00,
2013-03-04 07:25:00,24.6,17.8,30.25,WNW,285,0.0,1.0,75,0.00,,,0.00,Wunderground v.1.15,2013-03-04 12:25:00,
2013-03-04 07:30:00,24.7,17.9,30.25,WNW,295,0.0,0.0,75,0.00,,,0.00,Wunderground v.1.15,2013-03-04 12:30:00,
2013-03-04 07:35:00,24.7,17.9,30.25,WNW,285,0.0,0.0,75,0.00,,,0.00,Wunderground v.1.15,2013-03-04 12:35:00,
2013-03-04 07:40:00,24.8,18.0,30.25,SSW,202,0.0,1.0,75,0.00,,,0.00,Wunderground v.1.15,2013-03-04 12:40:00,
2013-03-04 07:45:00,24.9,18.1,30.25,SSW,210,0.0,1.0,75,0.00,,,0.00,Wunderground v.1.15,2013-03-04 12:45:00,
2013-03-04 07:55:00,25.2,18.1,30.26,NW,308,1.0,1.0,74,0.00,,,0.00,Wunderground v.1.15,2013-03-04 12:55:00,
2013-03-04 08:00:00,25.4,18.3,30.26,South,184,1.0,1.0,74,0.00,,,0.00,Wunderground v.1.15,2013-03-04 13:00:00,
2013-03-04 08:10:00,25.8,18.3,30.26,West,279,3.0,3.0,73,0.00,,,0.00,Wunderground v.1.15,2013-03-04 13:10:00,
2013-03-04 08:15:00,25.9,18.4,30.26,West,277,3.0,3.0,73,0.00,,,0.00,Wunderground v.1.15,2013-03-04 13:15:00,
2013-03-04 08:25:00,26.3,18.5,30.27,NW,315,2.0,3.0,72,0.00,,,0.00,Wunderground v.1.15,2013-03-04 13:25:00,
2013-03-04 08:30:00,26.4,18.6,30.26,NW,317,2.0,4.0,72,0.00,,,0.00,Wunderground v.1.15,2013-03-04 13:30:00,
2013-03-04 08:40:00,26.7,18.6,30.27,NW,309,4.0,4.0,71,0.00,,,0.00,Wunderground v.1.15,2013-03-04 13:40:00,
2013-03-04 08:45:00,26.8,18.3,30.27,NW,305,3.0,5.0,70,0.00,,,0.00,Wunderground v.1.15,2013-03-04 13:45:00,
2013-03-04 08:55:00,27.2,18.4,30.27,WNW,295,4.0,8.0,69,0.00,,,0.00,Wunderground v.1.15,2013-03-04 13:55:00,
2013-03-04 09:00:00,27.4,18.6,30.27,NW,313,4.0,4.0,69,0.00,,,0.00,Wunderground v.1.15,2013-03-04 14:00:00,
2013-03-04 09:05:00,27.3,18.1,30.27,WNW,296,5.0,6.0,68,0.00,,,0.00,Wunderground v.1.15,2013-03-04 14:05:00,
2013-03-04 09:10:00,27.3,18.1,30.27,NNW,327,5.0,5.0,68,0.00,,,0.00,Wunderground v.1.15,2013-03-04 14:10:00,
2013-03-04 09:20:00,27.9,18.7,30.26,WNW,298,5.0,8.0,68,0.00,,,0.00,Wunderground v.1.15,2013-03-04 14:20:00,
2013-03-04 09:25:00,27.9,18.4,30.26,West,277,6.0,8.0,67,0.00,,,0.00,Wunderground v.1.15,2013-03-04 14:25:00,
2013-03-04 09:30:00,28.2,19.0,30.26,NW,308,6.0,6.0,68,0.00,,,0.00,Wunderground v.1.15,2013-03-04 14:30:00,
2013-03-04 09:40:00,28.9,19.3,30.26,WNW,300,6.0,6.0,67,0.00,,,0.00,Wunderground v.1.15,2013-03-04 14:40:00,
2013-03-04 09:45:00,29.2,18.9,30.26,NW,308,7.0,7.0,65,0.00,,,0.00,Wunderground v.1.15,2013-03-04 14:45:00,
2013-03-04 09:50:00,29.2,18.9,30.26,West,275,8.0,8.0,65,0.00,,,0.00,Wunderground v.1.15,2013-03-04 14:50:00,
2013-03-04 09:55:00,29.5,19.2,30.26,NW,306,7.0,8.0,65,0.00,,,0.00,Wunderground v.1.15,2013-03-04 14:55:00,
2013-03-04 10:05:00,29.5,18.8,30.26,WNW,291,7.0,7.0,64,0.00,,,0.00,Wunderground v.1.15,2013-03-04 15:05:00,
2013-03-04 10:10:00,30.2,19.5,30.26,WNW,288,6.0,9.0,64,0.00,,,0.00,Wunderground v.1.15,2013-03-04 15:10:00,
2013-03-04 10:15:00,30.0,18.9,30.26,North,355,6.0,9.0,63,0.00,,,0.00,Wunderground v.1.15,2013-03-04 15:15:00,
2013-03-04 10:25:00,30.8,19.7,30.25,West,281,5.0,6.0,63,0.00,,,0.00,Wunderground v.1.15,2013-03-04 15:25:00,
2013-03-04 10:30:00,31.0,19.5,30.25,West,263,5.0,7.0,62,0.00,,,0.00,Wunderground v.1.15,2013-03-04 15:30:00,
2013-03-04 10:35:00,31.0,19.5,30.25,WNW,302,5.0,7.0,62,0.00,,,0.00,Wunderground v.1.15,2013-03-04 15:35:00,
2013-03-04 10:40:00,31.1,18.8,30.25,West,267,6.0,6.0,60,0.00,,,0.00,Wunderground v.1.15,2013-03-04 15:40:00,
2013-03-04 10:45:00,31.4,18.7,30.25,West,277,6.0,7.0,59,0.00,,,0.00,Wunderground v.1.15,2013-03-04 15:45:00,
2013-03-04 10:55:00,32.1,19.0,30.24,WNW,292,6.0,6.0,58,0.00,,,0.00,Wunderground v.1.15,2013-03-04 15:55:00,
2013-03-04 11:00:00,32.8,19.2,30.25,WNW,302,5.0,7.0,57,0.00,,,0.00,Wunderground v.1.15,2013-03-04 16:00:00,
2013-03-04 11:10:00,33.1,19.9,30.24,WNW,286,5.0,5.0,58,0.00,,,0.00,Wunderground v.1.15,2013-03-04 16:10:00,
2013-03-04 11:15:00,33.2,19.2,30.24,West,265,5.0,5.0,56,0.00,,,0.00,Wunderground v.1.15,2013-03-04 16:15:00,
2013-03-04 11:20:00,34.1,21.3,30.24,WNW,288,4.0,6.0,59,0.00,,,0.00,Wunderground v.1.15,2013-03-04 16:20:00,
2013-03-04 11:25:00,33.9,19.4,30.24,WNW,289,4.0,9.0,55,0.00,,,0.00,Wunderground v.1.15,2013-03-04 16:25:00,
2013-03-04 11:30:00,33.9,19.8,30.23,West,280,5.0,7.0,56,0.00,,,0.00,Wunderground v.1.15,2013-03-04 16:30:00,
2013-03-04 11:40:00,34.0,18.2,30.24,NNW,332,7.0,8.0,52,0.00,,,0.00,Wunderground v.1.15,2013-03-04 16:40:00,
2013-03-04 11:45:00,34.3,18.5,30.23,NW,311,7.0,8.0,52,0.00,,,0.00,Wunderground v.1.15,2013-03-04 16:45:00,
2013-03-04 11:55:00,34.7,18.9,30.23,NW,322,6.0,6.0,52,0.00,,,0.00,Wunderground v.1.15,2013-03-04 16:55:00,
2013-03-04 12:00:00,35.2,19.3,30.23,WNW,300,4.0,4.0,52,0.00,,,0.00,Wunderground v.1.15,2013-03-04 17:00:00,
2013-03-04 12:05:00,35.0,17.7,30.23,West,279,5.0,12.0,49,0.00,,,0.00,Wunderground v.1.15,2013-03-04 17:05:00,
2013-03-04 12:10:00,35.3,20.7,30.23,North,350,8.0,8.0,55,0.00,,,0.00,Wunderground v.1.15,2013-03-04 17:10:00,
2013-03-04 12:15:00,36.1,18.8,30.22,NW,313,6.0,8.0,49,0.00,,,0.00,Wunderground v.1.15,2013-03-04 17:15:00,
2013-03-04 12:25:00,36.7,19.8,30.22,West,279,5.0,8.0,50,0.00,,,0.00,Wunderground v.1.15,2013-03-04 17:25:00,
2013-03-04 12:30:00,37.0,19.1,30.22,NW,309,6.0,6.0,48,0.00,,,0.00,Wunderground v.1.15,2013-03-04 17:30:00,
2013-03-04 12:40:00,37.0,20.1,30.22,NW,319,5.0,11.0,50,0.00,,,0.00,Wunderground v.1.15,2013-03-04 17:40:00,
2013-03-04 12:45:00,37.2,19.8,30.21,WNW,285,6.0,11.0,49,0.00,,,0.00,Wunderground v.1.15,2013-03-04 17:45:00,
2013-03-04 12:55:00,38.0,19.0,30.21,WNW,286,5.0,7.0,46,0.00,,,0.00,Wunderground v.1.15,2013-03-04 17:55:00,
2013-03-04 13:00:00,38.4,20.4,30.21,SSW,196,5.0,5.0,48,0.00,,,0.00,Wunderground v.1.15,2013-03-04 18:00:00,
2013-03-04 13:10:00,38.6,18.5,30.20,NW,315,4.0,4.0,44,0.00,,,0.00,Wunderground v.1.15,2013-03-04 18:10:00,
2013-03-04 13:15:00,38.7,19.2,30.19,WNW,289,4.0,4.0,45,0.00,,,0.00,Wunderground v.1.15,2013-03-04 18:15:00,
2013-03-04 13:20:00,38.7,17.0,30.19,SSW,196,3.0,3.0,41,0.00,,,0.00,Wunderground v.1.15,2013-03-04 18:20:00,
2013-03-04 13:25:00,39.4,19.8,30.19,NW,309,2.0,4.0,45,0.00,,,0.00,Wunderground v.1.15,2013-03-04 18:25:00,
2013-03-04 13:30:00,40.1,18.8,30.18,West,271,3.0,3.0,42,0.00,,,0.00,Wunderground v.1.15,2013-03-04 18:30:00,
2013-03-04 13:40:00,41.1,19.7,30.18,NW,323,4.0,4.0,42,0.00,,,0.00,Wunderground v.1.15,2013-03-04 18:40:00,
2013-03-04 13:45:00,41.5,15.8,30.18,West,277,4.0,4.0,35,0.00,,,0.00,Wunderground v.1.15,2013-03-04 18:45:00,
2013-03-04 13:50:00,40.8,16.5,30.17,SSW,212,4.0,4.0,37,0.00,,,0.00,Wunderground v.1.15,2013-03-04 18:50:00,
2013-03-04 13:55:00,41.6,19.6,30.17,NW,311,3.0,7.0,41,0.00,,,0.00,Wunderground v.1.15,2013-03-04 18:55:00,
2013-03-04 14:00:00,41.7,19.7,30.17,NNW,339,3.0,3.0,41,0.00,,,0.00,Wunderground v.1.15,2013-03-04 19:00:00,
2013-03-04 14:05:00,42.3,20.8,30.16,WNW,290,3.0,7.0,42,0.00,,,0.00,Wunderground v.1.15,2013-03-04 19:05:00,
2013-03-04 14:10:00,42.0,18.8,30.17,SSE,166,4.0,4.0,39,0.00,,,0.00,Wunderground v.1.15,2013-03-04 19:10:00,
2013-03-04 14:15:00,42.1,18.9,30.17,WNW,286,4.0,7.0,39,0.00,,,0.00,Wunderground v.1.15,2013-03-04 19:15:00,
2013-03-04 14:25:00,42.5,19.3,30.16,NW,325,3.0,3.0,39,0.00,,,0.00,Wunderground v.1.15,2013-03-04 19:25:00,
2013-03-04 14:35:00,42.7,20.6,30.16,WNW,298,3.0,6.0,41,0.00,,,0.00,Wunderground v.1.15,2013-03-04 19:35:00,
2013-03-04 14:40:00,43.5,20.7,30.16,WSW,251,1.0,3.0,40,0.00,,,0.00,Wunderground v.1.15,2013-03-04 19:40:00,
2013-03-04 14:45:00,43.7,19.7,30.16,WSW,257,2.0,3.0,38,0.00,,,0.00,Wunderground v.1.15,2013-03-04 19:45:00,
2013-03-04 14:50:00,44.2,21.4,30.16,NW,326,3.0,3.0,40,0.00,,,0.00,Wunderground v.1.15,2013-03-04 19:50:00,
2013-03-04 14:55:00,44.5,20.4,30.15,WNW,298,2.0,3.0,38,0.00,,,0.00,Wunderground v.1.15,2013-03-04 19:55:00,
2013-03-04 15:00:00,44.3,19.0,30.15,NW,317,2.0,4.0,36,0.00,,,0.00,Wunderground v.1.15,2013-03-04 20:00:00,
2013-03-04 15:10:00,44.0,18.7,30.15,East,83,3.0,3.0,36,0.00,,,0.00,Wunderground v.1.15,2013-03-04 20:10:00,
2013-03-04 15:15:00,44.0,20.0,30.14,ESE,110,1.0,3.0,38,0.00,,,0.00,Wunderground v.1.15,2013-03-04 20:15:00,
2013-03-04 15:20:00,44.4,19.7,30.14,NW,323,1.0,2.0,37,0.00,,,0.00,Wunderground v.1.15,2013-03-04 20:20:00,
2013-03-04 15:25:00,44.2,18.9,30.14,WNW,292,2.0,3.0,36,0.00,,,0.00,Wunderground v.1.15,2013-03-04 20:25:00,
2013-03-04 15:35:00,44.5,19.8,30.14,North,11,3.0,4.0,37,0.00,,,0.00,Wunderground v.1.15,2013-03-04 20:35:00,
2013-03-04 15:40:00,44.4,19.1,30.14,ENE,76,2.0,2.0,36,0.00,,,0.00,Wunderground v.1.15,2013-03-04 20:40:00,
2013-03-04 15:45:00,44.5,19.8,30.14,NNW,327,1.0,2.0,37,0.00,,,0.00,Wunderground v.1.15,2013-03-04 20:45:00,
2013-03-04 15:55:00,44.9,19.5,30.14,WSW,257,3.0,5.0,36,0.00,,,0.00,Wunderground v.1.15,2013-03-04 20:55:00,
2013-03-04 16:00:00,45.0,20.3,30.14,NNW,333,3.0,3.0,37,0.00,,,0.00,Wunderground v.1.15,2013-03-04 21:00:00,
2013-03-04 16:10:00,45.5,21.9,30.14,NW,320,1.0,1.0,39,0.00,,,0.00,Wunderground v.1.15,2013-03-04 21:10:00,
2013-03-04 16:15:00,45.9,21.7,30.13,WNW,285,1.0,3.0,38,0.00,,,0.00,Wunderground v.1.15,2013-03-04 21:15:00,
2013-03-04 16:20:00,45.8,19.7,30.14,WNW,290,1.0,2.0,35,0.00,,,0.00,Wunderground v.1.15,2013-03-04 21:20:00,
2013-03-04 16:25:00,45.8,20.3,30.13,WSW,258,1.0,2.0,36,0.00,,,0.00,Wunderground v.1.15,2013-03-04 21:25:00,
2013-03-04 16:30:00,45.5,19.4,30.13,WSW,250,1.0,1.0,35,0.00,,,0.00,Wunderground v.1.15,2013-03-04 21:30:00,
2013-03-04 16:40:00,44.6,21.1,30.13,WSW,246,1.0,1.0,39,0.00,,,0.00,Wunderground v.1.15,2013-03-04 21:40:00,
2013-03-04 16:45:00,43.7,20.3,30.13,SW,235,1.0,1.0,39,0.00,,,0.00,Wunderground v.1.15,2013-03-04 21:45:00,
2013-03-04 16:55:00,43.3,23.4,30.13,WSW,253,1.0,3.0,45,0.00,,,0.00,Wunderground v.1.15,2013-03-04 21:55:00,
2013-03-04 17:05:00,42.4,20.9,30.13,WNW,302,1.0,2.0,42,0.00,,,0.00,Wunderground v.1.15,2013-03-04 22:05:00,
2013-03-04 17:10:00,42.9,20.2,30.13,SW,229,2.0,3.0,40,0.00,,,0.00,Wunderground v.1.15,2013-03-04 22:10:00,
2013-03-04 17:15:00,42.4,21.5,30.13,SW,229,1.0,3.0,43,0.00,,,0.00,Wunderground v.1.15,2013-03-04 22:15:00,
2013-03-04 17:20:00,41.7,20.8,30.14,SW,236,1.0,2.0,43,0.00,,,0.00,Wunderground v.1.15,2013-03-04 22:20:00,
2013-03-04 17:25:00,41.4,22.7,30.14,SW,236,1.0,2.0,47,0.00,,,0.00,Wunderground v.1.15,2013-03-04 22:25:00,
2013-03-04 17:30:00,40.5,23.3,30.14,SW,236,1.0,3.0,50,0.00,,,0.00,Wunderground v.1.15,2013-03-04 22:30:00,
2013-03-04 17:40:00,39.4,21.8,30.14,SW,236,1.0,1.0,49,0.00,,,0.00,Wunderground v.1.15,2013-03-04 22:40:00,
2013-03-04 17:45:00,39.3,24.0,30.14,SW,236,1.0,2.0,54,0.00,,,0.00,Wunderground v.1.15,2013-03-04 22:45:00,
2013-03-04 17:55:00,38.9,24.5,30.14,SW,236,0.0,0.0,56,0.00,,,0.00,Wunderground v.1.15,2013-03-04 22:55:00,
2013-03-04 18:00:00,38.8,24.4,30.14,SW,236,0.0,0.0,56,0.00,,,0.00,Wunderground v.1.15,2013-03-04 23:00:00,
2013-03-04 18:10:00,38.1,25.0,30.15,SW,236,0.0,0.0,59,0.00,,,0.00,Wunderground v.1.15,2013-03-04 23:10:00,
2013-03-04 18:20:00,36.9,25.5,30.15,SW,236,0.0,0.0,63,0.00,,,0.00,Wunderground v.1.15,2013-03-04 23:20:00,
2013-03-04 18:25:00,36.4,24.2,30.15,SW,236,0.0,0.0,61,0.00,,,0.00,Wunderground v.1.15,2013-03-04 23:25:00,
2013-03-04 18:30:00,36.1,25.5,30.15,SW,236,0.0,0.0,65,0.00,,,0.00,Wunderground v.1.15,2013-03-04 23:30:00,
2013-03-04 18:40:00,35.2,25.7,30.15,SW,236,0.0,0.0,68,0.00,,,0.00,Wunderground v.1.15,2013-03-04 23:40:00,
2013-03-04 18:45:00,35.0,26.2,30.15,SW,236,0.0,0.0,70,0.00,,,0.00,Wunderground v.1.15,2013-03-04 23:45:00,
2013-03-04 18:55:00,34.7,25.9,30.15,SW,236,0.0,0.0,70,0.00,,,0.00,Wunderground v.1.15,2013-03-04 23:55:00,
2013-03-04 19:00:00,34.6,26.2,30.15,SW,236,0.0,0.0,71,0.00,,,0.00,Wunderground v.1.15,2013-03-05 00:00:00,
2013-03-04 19:05:00,34.3,25.9,30.15,SW,236,0.0,0.0,71,0.00,,,0.00,Wunderground v.1.15,2013-03-05 00:05:00,
2013-03-04 19:10:00,34.2,25.8,30.16,SW,236,0.0,0.0,71,0.00,,,0.00,Wunderground v.1.15,2013-03-05 00:10:00,
2013-03-04 19:15:00,34.0,25.6,30.16,SW,236,0.0,0.0,71,0.00,,,0.00,Wunderground v.1.15,2013-03-05 00:15:00,
2013-03-04 19:25:00,33.8,26.4,30.16,SW,236,0.0,0.0,74,0.00,,,0.00,Wunderground v.1.15,2013-03-05 00:25:00,
2013-03-04 19:30:00,33.7,26.3,30.16,SW,236,0.0,0.0,74,0.00,,,0.00,Wunderground v.1.15,2013-03-05 00:30:00,
2013-03-04 19:40:00,33.8,25.7,30.15,SW,236,0.0,0.0,72,0.00,,,0.00,Wunderground v.1.15,2013-03-05 00:40:00,
2013-03-04 19:45:00,33.9,26.5,30.15,SW,236,0.0,0.0,74,0.00,,,0.00,Wunderground v.1.15,2013-03-05 00:45:00,
2013-03-04 19:50:00,33.9,26.8,30.15,SW,236,0.0,0.0,75,0.00,,,0.00,Wunderground v.1.15,2013-03-05 00:50:00,
2013-03-04 19:55:00,34.0,26.6,30.16,SW,236,0.0,0.0,74,0.00,,,0.00,Wunderground v.1.15,2013-03-05 00:55:00,
2013-03-04 20:00:00,34.0,26.6,30.15,SW,236,0.0,0.0,74,0.00,,,0.00,Wunderground v.1.15,2013-03-05 01:00:00,
2013-03-04 20:10:00,34.0,26.9,30.15,SW,236,0.0,0.0,75,0.00,,,0.00,Wunderground v.1.15,2013-03-05 01:10:00,
2013-03-04 20:15:00,33.9,26.5,30.15,SW,236,0.0,0.0,74,0.00,,,0.00,Wunderground v.1.15,2013-03-05 01:15:00,
2013-03-04 20:25:00,33.6,26.8,30.15,SW,236,0.0,0.0,76,0.00,,,0.00,Wunderground v.1.15,2013-03-05 01:25:00,
2013-03-04 20:30:00,33.5,26.1,30.15,SW,236,0.0,0.0,74,0.00,,,0.00,Wunderground v.1.15,2013-03-05 01:30:00,
2013-03-04 20:35:00,33.5,26.4,30.15,SW,236,0.0,0.0,75,0.00,,,0.00,Wunderground v.1.15,2013-03-05 01:35:00,
2013-03-04 20:40:00,33.6,27.5,30.15,SW,236,0.0,0.0,78,0.00,,,0.00,Wunderground v.1.15,2013-03-05 01:40:00,
2013-03-04 20:45:00,33.5,27.1,30.15,SW,236,0.0,0.0,77,0.00,,,0.00,Wunderground v.1.15,2013-03-05 01:45:00,
2013-03-04 20:55:00,33.7,27.6,30.15,SW,236,0.0,0.0,78,0.00,,,0.00,Wunderground v.1.15,2013-03-05 01:55:00,
2013-03-04 21:00:00,33.7,26.9,30.15,SW,236,0.0,0.0,76,0.00,,,0.00,Wunderground v.1.15,2013-03-05 02:00:00,
2013-03-04 21:10:00,33.8,26.7,30.14,SW,236,0.0,0.0,75,0.00,,,0.00,Wunderground v.1.15,2013-03-05 02:10:00,
2013-03-04 21:20:00,34.0,27.9,30.15,SW,236,0.0,0.0,78,0.00,,,0.00,Wunderground v.1.15,2013-03-05 02:20:00,
2013-03-04 21:25:00,34.0,27.9,30.15,SW,236,0.0,0.0,78,0.00,,,0.00,Wunderground v.1.15,2013-03-05 02:25:00,
2013-03-04 21:30:00,34.0,27.9,30.14,SW,236,0.0,0.0,78,0.00,,,0.00,Wunderground v.1.15,2013-03-05 02:30:00,
2013-03-04 21:40:00,34.0,27.9,30.14,SW,236,0.0,0.0,78,0.00,,,0.00,Wunderground v.1.15,2013-03-05 02:40:00,
2013-03-04 21:45:00,33.9,28.1,30.14,SW,236,0.0,0.0,79,0.00,,,0.00,Wunderground v.1.15,2013-03-05 02:45:00,
2013-03-04 21:55:00,33.9,28.4,30.14,SW,236,0.0,0.0,80,0.00,,,0.00,Wunderground v.1.15,2013-03-05 02:55:00,
2013-03-04 22:00:00,33.9,28.7,30.13,SW,236,0.0,0.0,81,0.00,,,0.00,Wunderground v.1.15,2013-03-05 03:00:00,
2013-03-04 22:05:00,33.8,28.3,30.13,SW,236,0.0,0.0,80,0.00,,,0.00,Wunderground v.1.15,2013-03-05 03:05:00,
2013-03-04 22:10:00,33.8,28.9,30.13,SW,236,0.0,0.0,82,0.00,,,0.00,Wunderground v.1.15,2013-03-05 03:10:00,
2013-03-04 22:15:00,33.7,28.2,30.13,SW,236,0.0,0.0,80,0.00,,,0.00,Wunderground v.1.15,2013-03-05 03:15:00,
2013-03-04 22:25:00,33.4,28.2,30.14,SW,236,0.0,0.0,81,0.00,,,0.00,Wunderground v.1.15,2013-03-05 03:25:00,
2013-03-04 22:30:00,33.3,28.4,30.14,SW,236,0.0,0.0,82,0.00,,,0.00,Wunderground v.1.15,2013-03-05 03:30:00,
2013-03-04 22:40:00,32.9,27.7,30.14,SW,236,0.0,0.0,81,0.00,,,0.00,Wunderground v.1.15,2013-03-05 03:40:00,
2013-03-04 22:45:00,32.8,28.2,30.14,SW,236,0.0,0.0,83,0.00,,,0.00,Wunderground v.1.15,2013-03-05 03:45:00,
2013-03-04 22:55:00,32.4,27.8,30.13,SW,236,0.0,0.0,83,0.00,,,0.00,Wunderground v.1.15,2013-03-05 03:55:00,
2013-03-04 23:00:00,32.3,27.7,30.13,SW,236,0.0,0.0,83,0.00,,,0.00,Wunderground v.1.15,2013-03-05 04:00:00,
2013-03-04 23:05:00,32.1,27.8,30.13,SW,236,0.0,0.0,84,0.00,,,0.00,Wunderground v.1.15,2013-03-05 04:05:00,
2013-03-04 23:10:00,32.0,27.7,30.13,SW,236,0.0,0.0,84,0.00,,,0.00,Wunderground v.1.15,2013-03-05 04:10:00,
2013-03-04 23:15:00,31.9,27.9,30.13,SW,236,0.0,0.0,85,0.00,,,0.00,Wunderground v.1.15,2013-03-05 04:15:00,
2013-03-04 23:25:00,31.7,27.7,30.13,SW,236,0.0,0.0,85,0.00,,,0.00,Wunderground v.1.15,2013-03-05 04:25:00,
2013-03-04 23:30:00,31.7,27.7,30.13,SW,236,0.0,0.0,85,0.00,,,0.00,Wunderground v.1.15,2013-03-05 04:30:00,
2013-03-04 23:40:00,31.7,27.7,30.13,SW,236,0.0,0.0,85,0.00,,,0.00,Wunderground v.1.15,2013-03-05 04:40:00,
2013-03-04 23:50:00,31.8,27.8,30.14,SW,236,0.0,0.0,85,0.00,,,0.00,Wunderground v.1.15,2013-03-05 04:50:00,
2013-03-04 23:55:00,31.9,27.9,30.14,SW,236,0.0,0.0,85,0.00,,,0.00,Wunderground v.1.15,2013-03-05 04:55:00,